Time;durP1;ratioP1;P1;durP2;ratioP2;P2;SDS_P1;SDS_P2;PMS_P1;PMS_P2;Temp;Humidity;BMP_temperature;BMP_pressure;BME280_temperature;BME280_humidity;BME280_pressure;Samples;Min_cycle;Max_cycle;Signal;HPM_P1;HPM_P2
2022/09/20 00:00:03;;;;;;;72.53;32.92;;;6.00;99.90;;;;;;5077901;28;20059;-75
2022/09/20 00:02:32;;;;;;;41.92;24.13;;;6.00;99.90;;;;;;5075713;28;20090;-75
2022/09/20 00:04:59;;;;;;;42.97;23.95;;;6.00;99.90;;;;;;5058179;28;20412;-75
2022/09/20 00:07:26;;;;;;;44.45;24.35;;;6.00;99.90;;;;;;5076295;28;20059;-75
2022/09/20 00:09:55;;;;;;;41.28;24.02;;;6.00;99.90;;;;;;5074854;28;20037;-76
2022/09/20 00:12:23;;;;;;;46.70;24.95;;;6.00;99.90;;;;;;5038634;28;20041;-75
2022/09/20 00:14:50;;;;;;;40.22;24.92;;;6.10;99.90;;;;;;5057209;28;20065;-75
2022/09/20 00:17:18;;;;;;;37.28;22.95;;;6.10;99.90;;;;;;5038813;28;20550;-76
2022/09/20 00:19:45;;;;;;;41.53;21.10;;;6.10;99.90;;;;;;5060922;28;20044;-76
2022/09/20 00:22:13;;;;;;;34.28;20.05;;;6.10;99.90;;;;;;5080723;28;20044;-75
2022/09/20 00:24:40;;;;;;;64.97;17.90;;;6.00;99.90;;;;;;5062339;28;20067;-74
2022/09/20 00:27:09;;;;;;;35.70;19.85;;;5.90;99.90;;;;;;5077912;28;20055;-75
2022/09/20 00:29:36;;;;;;;33.33;21.40;;;5.90;99.90;;;;;;5057416;28;20044;-75
2022/09/20 00:32:03;;;;;;;32.05;19.50;;;5.90;99.90;;;;;;5073883;28;20075;-75
2022/09/20 00:37:16;;;;;;;27.88;17.23;;;5.90;99.90;;;;;;5073305;28;20170;-75
2022/09/20 00:39:43;;;;;;;29.70;17.20;;;6.00;99.90;;;;;;5074108;28;20043;-75
2022/09/20 00:42:14;;;;;;;30.10;18.23;;;5.90;99.90;;;;;;5074106;28;20060;-76
2022/09/20 00:44:51;;;;;;;35.15;19.52;;;6.00;99.90;;;;;;5074528;28;20091;-74
2022/09/20 00:47:28;;;;;;;37.75;24.73;;;6.00;99.90;;;;;;5075560;28;20032;-75
2022/09/20 00:49:59;;;;;;;33.63;18.77;;;6.00;99.90;;;;;;5075271;28;20560;-75
2022/09/20 00:52:29;;;;;;;35.55;18.40;;;5.90;99.90;;;;;;5056542;28;20440;-75
2022/09/20 00:54:58;;;;;;;26.83;17.83;;;5.90;99.90;;;;;;5072938;28;20495;-75
2022/09/20 00:57:33;;;;;;;33.35;21.42;;;5.90;99.90;;;;;;5054979;28;20530;-76
2022/09/20 01:00:05;;;;;;;25.73;16.55;;;5.90;99.90;;;;;;5073353;28;20121;-76
2022/09/20 01:02:35;;;;;;;27.00;17.83;;;5.80;99.90;;;;;;5073008;28;20045;-75
2022/09/20 01:05:03;;;;;;;31.00;18.45;;;5.80;99.90;;;;;;5073104;28;20072;-77
2022/09/20 01:07:30;;;;;;;31.92;19.00;;;5.90;99.90;;;;;;5072157;28;20072;-76
2022/09/20 01:09:57;;;;;;;33.70;20.00;;;5.90;99.90;;;;;;5073087;28;20077;-76
2022/09/20 01:12:30;;;;;;;29.98;17.88;;;5.90;99.90;;;;;;5056524;28;20488;-75
2022/09/20 01:14:59;;;;;;;27.23;17.98;;;5.90;99.90;;;;;;5056569;28;20049;-76
2022/09/20 01:17:29;;;;;;;27.02;16.55;;;5.90;99.90;;;;;;5054069;28;20095;-76
2022/09/20 01:20:11;;;;;;;35.85;20.13;;;5.90;99.90;;;;;;5072765;28;20106;-76
2022/09/20 01:22:50;;;;;;;35.17;20.02;;;5.90;99.90;;;;;;5072451;28;20500;-75
2022/09/20 01:25:25;;;;;;;30.27;17.58;;;5.90;99.90;;;;;;5073182;28;20056;-75
2022/09/20 01:27:54;;;;;;;35.78;17.70;;;5.90;99.90;;;;;;5072978;28;20040;-76
2022/09/20 01:30:25;;;;;;;28.92;16.35;;;5.90;99.90;;;;;;5072395;28;20532;-75
2022/09/20 01:33:02;;;;;;;23.77;16.50;;;5.90;99.90;;;;;;5055058;28;20059;-76
2022/09/20 01:35:32;;;;;;;28.70;16.08;;;6.00;99.90;;;;;;5055285;28;20048;-75
2022/09/20 01:38:27;;;;;;;23.38;14.88;;;5.90;99.90;;;;;;5071950;28;20067;-75
2022/09/20 01:41:04;;;;;;;22.13;14.15;;;6.00;99.90;;;;;;5051362;28;20048;-76
2022/09/20 01:43:38;;;;;;;29.42;15.55;;;5.90;99.90;;;;;;5076199;28;20385;-76
2022/09/20 01:46:28;;;;;;;31.05;15.70;;;5.90;99.90;;;;;;5076224;28;20392;-76
2022/09/20 01:49:08;;;;;;;25.52;15.95;;;5.90;99.90;;;;;;5075980;28;20040;-75
2022/09/20 01:52:08;;;;;;;25.08;16.02;;;5.90;99.90;;;;;;5076596;28;20495;-75
2022/09/20 01:55:05;;;;;;;28.33;16.23;;;5.90;99.90;;;;;;5075237;28;20041;-76
2022/09/20 01:57:52;;;;;;;32.85;18.17;;;6.00;99.90;;;;;;5057853;28;20060;-75
2022/09/20 02:00:24;;;;;;;36.08;18.67;;;5.90;99.90;;;;;;5076316;28;20411;-75
2022/09/20 02:03:21;;;;;;;36.28;20.08;;;6.00;99.90;;;;;;5076092;28;20041;-75
2022/09/20 02:06:14;;;;;;;32.75;18.90;;;6.00;99.90;;;;;;5075075;28;20044;-75
2022/09/20 02:09:17;;;;;;;35.95;19.23;;;6.00;99.90;;;;;;5072535;28;20044;-75
2022/09/20 02:11:57;;;;;;;32.85;19.20;;;6.00;99.90;;;;;;5058519;28;20071;-74
2022/09/20 02:14:41;;;;;;;32.20;18.23;;;6.10;99.90;;;;;;5058195;28;20045;-76
2022/09/20 02:17:16;;;;;;;34.38;17.95;;;6.10;99.90;;;;;;5057893;28;20067;-75
2022/09/20 02:20:06;;;;;;;30.92;18.33;;;6.10;99.90;;;;;;5091765;28;20143;-76
2022/09/20 02:22:46;;;;;;;36.03;20.00;;;6.10;99.90;;;;;;5077997;28;20071;-76
2022/09/20 02:25:34;;;;;;;41.08;22.38;;;6.00;99.90;;;;;;5077919;28;20124;-75
2022/09/20 02:28:14;;;;;;;32.05;20.13;;;6.00;99.90;;;;;;5074703;28;20053;-76
2022/09/20 02:30:54;;;;;;;32.38;19.17;;;5.80;99.90;;;;;;5059105;28;20041;-75
2022/09/20 02:33:40;;;;;;;28.73;17.20;;;5.60;99.90;;;;;;5076007;28;20048;-75
2022/09/20 02:36:28;;;;;;;33.72;18.08;;;5.50;99.90;;;;;;5058798;28;20076;-75
2022/09/20 02:39:03;;;;;;;31.58;18.42;;;5.50;99.90;;;;;;5065595;28;20120;-76
2022/09/20 02:41:56;;;;;;;27.90;18.83;;;5.50;99.90;;;;;;5075859;28;20144;-75
2022/09/20 02:44:44;;;;;;;32.35;20.10;;;5.60;99.90;;;;;;5033720;28;20363;-75
2022/09/20 02:47:21;;;;;;;34.60;20.30;;;5.60;99.90;;;;;;5057200;28;20458;-75
2022/09/20 02:50:21;;;;;;;42.80;20.98;;;5.70;99.90;;;;;;5075240;28;20041;-75
2022/09/20 02:53:04;;;;;;;37.85;20.38;;;5.70;99.90;;;;;;5074586;28;20474;-75
2022/09/20 02:55:43;;;;;;;31.35;18.20;;;5.80;99.90;;;;;;5075463;28;20048;-75
2022/09/20 02:58:29;;;;;;;30.95;19.15;;;5.80;99.90;;;;;;5042263;28;20064;-75
2022/09/20 03:01:04;;;;;;;29.35;17.63;;;5.80;99.90;;;;;;5038041;28;20056;-76
2022/09/20 03:03:43;;;;;;;33.70;19.85;;;5.70;99.90;;;;;;5040608;28;20049;-76
2022/09/20 03:06:28;;;;;;;34.28;18.65;;;5.70;99.90;;;;;;5037211;28;20045;-76
2022/09/20 03:09:04;;;;;;;27.92;17.52;;;5.70;99.90;;;;;;5054581;28;20499;-75
2022/09/20 03:11:36;;;;;;;;;;;5.80;99.90;;;;;;5055606;28;20079;-75
2022/09/20 03:14:13;;;;;;;51.28;19.20;;;5.70;99.90;;;;;;5054356;28;19950;-75
2022/09/20 03:16:51;;;;;;;36.55;18.90;;;5.70;99.90;;;;;;5036889;28;20048;-77
2022/09/20 03:19:32;;;;;;;63.10;19.08;;;5.60;99.90;;;;;;5055042;28;20421;-75
2022/09/20 03:22:15;;;;;;;28.23;19.15;;;5.40;99.90;;;;;;5053868;28;20468;-75
2022/09/20 03:24:53;;;;;;;28.45;18.25;;;5.50;99.90;;;;;;5036373;28;20154;-76
2022/09/20 03:27:31;;;;;;;37.67;17.15;;;5.50;99.90;;;;;;5054263;28;20037;-76
2022/09/20 03:30:17;;;;;;;23.02;15.20;;;5.60;99.90;;;;;;5054947;28;20523;-75
2022/09/20 03:32:59;;;;;;;26.90;14.18;;;5.70;99.90;;;;;;5036027;28;20099;-76
2022/09/20 03:35:42;;;;;;;30.00;13.85;;;5.70;99.90;;;;;;5054880;28;20133;-76
2022/09/20 03:38:25;;;;;;;28.52;13.85;;;5.70;99.90;;;;;;5054294;28;20079;-77
2022/09/20 03:41:08;;;;;;;29.88;13.98;;;5.70;99.90;;;;;;5054729;28;20095;-76
2022/09/20 03:43:54;;;;;;;31.55;16.30;;;5.70;99.90;;;;;;5035989;28;20059;-75
2022/09/20 03:46:25;;;;;;;40.00;17.27;;;5.70;99.90;;;;;;5054146;28;20047;-75
2022/09/20 03:49:25;;;;;;;39.30;16.67;;;5.70;99.90;;;;;;5036327;28;20519;-76
2022/09/20 03:52:05;;;;;;;28.38;14.25;;;5.80;99.90;;;;;;5029018;28;20523;-76
2022/09/20 03:55:08;;;;;;;26.80;14.70;;;5.80;99.90;;;;;;5064626;28;20045;-75
2022/09/20 03:57:49;;;;;;;34.58;16.52;;;5.70;99.90;;;;;;5062674;28;20056;-75
2022/09/20 04:00:24;;;;;;;34.95;17.33;;;5.70;99.90;;;;;;5073544;28;20049;-76
2022/09/20 04:03:10;;;;;;;119.27;34.77;;;5.70;99.90;;;;;;5074023;28;20123;-75
2022/09/20 04:05:49;;;;;;;57.90;29.20;;;5.60;99.90;;;;;;5073450;28;20047;-76
2022/09/20 04:08:30;;;;;;;39.28;21.48;;;5.60;99.90;;;;;;5072599;28;20048;-76
2022/09/20 04:11:07;;;;;;;49.30;19.80;;;5.60;99.90;;;;;;5072785;28;20101;-76
2022/09/20 04:13:39;;;;;;;41.75;21.75;;;5.70;99.90;;;;;;5074075;28;20048;-75
2022/09/20 04:16:27;;;;;;;64.90;25.73;;;5.70;99.90;;;;;;5072493;28;20098;-77
2022/09/20 04:18:58;;;;;;;60.72;32.25;;;5.60;99.90;;;;;;5072328;28;20048;-75
2022/09/20 04:21:32;;;;;;;235.60;37.05;;;5.60;99.90;;;;;;5072328;28;20446;-76
2022/09/20 04:24:05;;;;;;;183.15;24.85;;;5.60;99.90;;;;;;5073053;28;20075;-77
2022/09/20 04:26:40;;;;;;;157.85;22.33;;;5.40;99.90;;;;;;5073344;28;20052;-76
2022/09/20 04:29:22;;;;;;;57.72;18.42;;;5.40;99.90;;;;;;5073358;28;20059;-76
2022/09/20 04:31:59;;;;;;;47.75;18.20;;;5.30;99.90;;;;;;5073692;28;20055;-76
2022/09/20 04:37:26;;;;;;;47.85;16.92;;;5.50;99.90;;;;;;5073989;28;20046;-75
2022/09/20 04:40:03;;;;;;;73.13;18.08;;;5.50;99.90;;;;;;5078279;28;20052;-75
2022/09/20 04:43:16;;;;;;;83.28;21.27;;;5.50;99.90;;;;;;5082572;28;20041;-75
2022/09/20 04:46:17;;;;;;;70.05;16.95;;;5.50;99.90;;;;;;5016647;28;20053;-76
2022/09/20 04:49:14;;;;;;;93.80;19.00;;;5.50;99.90;;;;;;5000166;28;20062;-76
2022/09/20 04:52:21;;;;;;;40.08;15.93;;;5.50;99.90;;;;;;5029480;28;20427;-75
2022/09/20 04:55:37;;;;;;;33.10;16.77;;;5.60;99.90;;;;;;5076858;28;20491;-75
2022/09/20 04:58:49;;;;;;;42.20;18.27;;;5.70;99.90;;;;;;5081083;28;20139;-76
2022/09/20 05:01:55;;;;;;;38.47;18.23;;;5.80;99.90;;;;;;5076498;28;20041;-77
2022/09/20 05:04:55;;;;;;;41.50;20.85;;;5.80;99.90;;;;;;5075745;28;20048;-76
2022/09/20 05:08:03;;;;;;;42.55;20.60;;;5.90;99.90;;;;;;5075540;28;20479;-75
2022/09/20 05:10:53;;;;;;;50.08;22.13;;;6.00;99.90;;;;;;5057182;28;20068;-75
2022/09/20 05:13:34;;;;;;;51.30;21.92;;;6.00;99.90;;;;;;5053508;28;20052;-77
2022/09/20 05:16:06;;;;;;;86.45;19.90;;;6.10;99.90;;;;;;5056822;28;20131;-77
2022/09/20 05:19:05;;;;;;;67.55;18.25;;;6.00;99.90;;;;;;5077549;28;20476;-77
2022/09/20 05:21:51;;;;;;;60.83;19.95;;;6.00;99.90;;;;;;5059138;28;20140;-76
2022/09/20 05:24:38;;;;;;;39.03;20.63;;;6.10;99.90;;;;;;5016262;28;20056;-77
2022/09/20 05:27:21;;;;;;;37.53;19.42;;;6.00;99.90;;;;;;5077752;28;20072;-77
2022/09/20 05:29:55;;;;;;;608.83;98.75;;;6.10;99.90;;;;;;5077347;28;20428;-76
2022/09/20 05:32:29;;;;;;;33.90;14.70;;;6.10;99.90;;;;;;5060179;28;20045;-76
2022/09/20 05:35:03;;;;;;;23.75;13.52;;;6.10;99.90;;;;;;5078505;28;20052;-75
2022/09/20 05:37:40;;;;;;;23.58;14.27;;;6.10;99.90;;;;;;5076548;28;20467;-76
2022/09/20 05:40:23;;;;;;;39.70;16.48;;;6.10;99.90;;;;;;5076671;28;20041;-76
2022/09/20 05:42:55;;;;;;;42.33;19.42;;;6.00;99.90;;;;;;5058153;28;20417;-77
2022/09/20 05:45:46;;;;;;;48.00;18.25;;;6.20;99.90;;;;;;5058387;28;20056;-75
2022/09/20 05:48:18;;;;;;;52.78;19.30;;;6.40;99.90;;;;;;5058421;28;20056;-76
2022/09/20 05:50:56;;;;;;;80.32;23.20;;;6.70;99.90;;;;;;5076116;28;20140;-75
2022/09/20 05:53:46;;;;;;;52.45;21.63;;;6.90;99.90;;;;;;5058441;28;20041;-75
2022/09/20 05:56:26;;;;;;;40.45;19.65;;;7.30;99.90;;;;;;5076073;28;20047;-75
2022/09/20 05:59:14;;;;;;;57.25;21.30;;;7.70;99.90;;;;;;5076558;28;20045;-76
2022/09/20 06:01:50;;;;;;;41.38;18.77;;;8.00;99.90;;;;;;5078724;28;20041;-76
2022/09/20 06:04:23;;;;;;;30.83;17.25;;;8.20;99.90;;;;;;5079945;28;20049;-75
2022/09/20 06:07:01;;;;;;;28.95;17.38;;;8.20;99.90;;;;;;5079965;28;20484;-76
2022/09/20 06:09:43;;;;;;;30.85;16.90;;;8.10;99.90;;;;;;5075423;28;20070;-76
2022/09/20 06:12:40;;;;;;;29.17;16.77;;;8.10;99.90;;;;;;5076048;28;20039;-75
2022/09/20 06:15:20;;;;;;;34.50;16.70;;;8.00;99.90;;;;;;5075087;28;20135;-73
2022/09/20 06:17:57;;;;;;;28.27;17.98;;;8.00;99.90;;;;;;5075717;28;20442;-74
2022/09/20 06:20:30;;;;;;;27.92;17.50;;;7.90;99.90;;;;;;5075848;28;20117;-73
2022/09/20 06:23:01;;;;;;;27.42;17.88;;;7.90;99.90;;;;;;5075548;28;20123;-72
2022/09/20 06:25:34;;;;;;;26.13;17.45;;;7.80;99.90;;;;;;5076284;28;20466;-75
2022/09/20 06:28:09;;;;;;;41.85;18.77;;;7.70;99.90;;;;;;5074232;28;20052;-75
2022/09/20 06:30:42;;;;;;;29.77;19.10;;;7.50;99.90;;;;;;5075894;28;20048;-75
2022/09/20 06:33:15;;;;;;;37.35;18.17;;;7.60;99.90;;;;;;5075445;28;20052;-75
2022/09/20 06:35:49;;;;;;;24.80;16.63;;;7.70;99.90;;;;;;5075849;28;20048;-75
2022/09/20 06:41:29;;;;;;;41.20;22.27;;;8.40;99.90;;;;;;5075848;28;20051;-76
2022/09/20 06:44:01;;;;;;;39.00;19.80;;;8.80;99.90;;;;;;5074034;28;20048;-76
2022/09/20 06:46:29;;;;;;;31.63;20.15;;;9.00;99.90;;;;;;5074495;28;20057;-75
2022/09/20 06:48:57;;;;;;;30.58;20.30;;;9.00;99.90;;;;;;5075454;28;20049;-75
2022/09/20 06:51:26;;;;;;;32.88;19.08;;;9.10;99.90;;;;;;5074120;28;20495;-75
2022/09/20 06:53:55;;;;;;;29.85;19.83;;;9.20;99.90;;;;;;5075791;28;20072;-74
2022/09/20 06:56:25;;;;;;;27.83;16.40;;;9.30;99.90;;;;;;5076810;28;20074;-75
2022/09/20 06:58:52;;;;;;;30.70;16.42;;;9.60;99.90;;;;;;5077816;28;20041;-74
2022/09/20 07:01:22;;;;;;;20.05;13.52;;;9.90;99.90;;;;;;5076510;28;20036;-75
2022/09/20 07:03:49;;;;;;;20.40;13.55;;;10.10;99.90;;;;;;5075628;28;20045;-74
2022/09/20 07:06:18;;;;;;;19.20;12.27;;;10.40;99.90;;;;;;5075525;28;20119;-72
2022/09/20 07:08:46;;;;;;;21.17;13.45;;;10.80;99.90;;;;;;5074968;28;20123;-74
2022/09/20 07:11:16;;;;;;;22.65;16.40;;;11.00;99.90;;;;;;5074482;28;20036;-74
2022/09/20 07:13:44;;;;;;;23.08;12.55;;;11.20;99.90;;;;;;5074466;28;20048;-74
2022/09/20 07:16:14;;;;;;;14.90;11.18;;;11.50;99.90;;;;;;5074806;28;20467;-74
2022/09/20 07:18:42;;;;;;;13.65;10.63;;;11.70;99.90;;;;;;5075226;28;20052;-73
2022/09/20 07:21:12;;;;;;;16.13;10.65;;;11.90;99.90;;;;;;5074706;28;20059;-73
2022/09/20 07:23:39;;;;;;;19.20;11.32;;;12.10;99.90;;;;;;5073515;28;20118;-74
2022/09/20 07:26:07;;;;;;;20.17;14.05;;;12.30;99.90;;;;;;5075367;28;20059;-73
2022/09/20 07:28:35;;;;;;;19.65;13.50;;;12.50;99.90;;;;;;5074204;28;20072;-73
2022/09/20 07:31:02;;;;;;;18.67;11.13;;;12.40;99.90;;;;;;5074452;28;20045;-74
2022/09/20 07:33:30;;;;;;;18.80;11.68;;;12.50;99.90;;;;;;5074191;28;20407;-74
2022/09/20 07:35:58;;;;;;;15.35;9.73;;;12.70;99.90;;;;;;5074011;28;20040;-73
2022/09/20 07:38:26;;;;;;;17.30;7.88;;;12.80;99.90;;;;;;5073886;28;20090;-73
2022/09/20 07:40:58;;;;;;;17.55;10.13;;;13.00;99.90;;;;;;5073667;28;20094;-73
2022/09/20 07:43:25;;;;;;;13.73;7.68;;;13.20;99.90;;;;;;5074150;28;20049;-74
2022/09/20 07:45:54;;;;;;;15.48;8.07;;;13.30;99.90;;;;;;5074516;28;20071;-74
2022/09/20 07:48:24;;;;;;;15.80;10.25;;;13.50;99.90;;;;;;5074667;28;20495;-75
2022/09/20 07:50:53;;;;;;;17.92;10.18;;;13.40;99.90;;;;;;5074787;28;20047;-74
2022/09/20 07:53:22;;;;;;;22.92;10.98;;;13.60;99.90;;;;;;5073345;28;20515;-74
2022/09/20 07:56:00;;;;;;;16.30;9.10;;;13.80;99.90;;;;;;5075163;28;20079;-76
2022/09/20 07:58:28;;;;;;;19.58;10.90;;;13.90;99.90;;;;;;5074933;28;20061;-74
2022/09/20 08:00:56;;;;;;;14.73;8.95;;;13.80;99.90;;;;;;5075496;28;20101;-74
2022/09/20 08:03:24;;;;;;;18.98;10.02;;;13.80;99.90;;;;;;5073749;28;20451;-76
2022/09/20 08:05:52;;;;;;;13.48;9.05;;;13.80;99.90;;;;;;5074937;28;20041;-76
2022/09/20 08:08:20;;;;;;;13.02;8.95;;;13.90;99.90;;;;;;5075760;28;20055;-75
2022/09/20 08:10:49;;;;;;;14.88;9.50;;;13.80;99.90;;;;;;5073704;28;20040;-76
2022/09/20 08:13:16;;;;;;;14.90;8.10;;;13.80;99.90;;;;;;5073016;28;20047;-75
2022/09/20 08:15:44;;;;;;;19.35;9.98;;;14.00;99.90;;;;;;5073259;28;20053;-75
2022/09/20 08:18:13;;;;;;;17.33;10.57;;;14.00;99.90;;;;;;5073864;28;20124;-74
2022/09/20 08:20:40;;;;;;;21.23;11.23;;;13.70;99.90;;;;;;5073271;28;20543;-74
2022/09/20 08:23:08;;;;;;;20.35;11.63;;;13.60;99.90;;;;;;5055128;28;20045;-74
2022/09/20 08:25:37;;;;;;;21.40;10.77;;;13.70;99.90;;;;;;5073252;28;20110;-73
2022/09/20 08:28:05;;;;;;;18.23;11.02;;;13.60;99.90;;;;;;5073459;28;20048;-74
2022/09/20 08:30:33;;;;;;;20.55;11.82;;;13.70;99.90;;;;;;5055812;28;20072;-74
2022/09/20 08:33:03;;;;;;;22.67;12.20;;;13.80;99.90;;;;;;5073031;28;20037;-75
2022/09/20 08:35:31;;;;;;;16.45;10.32;;;14.10;99.90;;;;;;5073644;28;20499;-74
2022/09/20 08:37:59;;;;;;;17.73;10.45;;;14.10;99.90;;;;;;5073256;28;20048;-74
2022/09/20 08:40:26;;;;;;;18.33;10.45;;;14.30;99.90;;;;;;5073404;28;20515;-74
2022/09/20 08:42:54;;;;;;;18.80;10.25;;;14.30;99.90;;;;;;5073381;28;20112;-74
2022/09/20 08:45:25;;;;;;;17.10;9.63;;;14.60;99.90;;;;;;5073576;28;20049;-74
2022/09/20 08:47:58;;;;;;;15.35;9.88;;;14.60;99.90;;;;;;5074392;28;20561;-74
2022/09/20 08:50:26;;;;;;;19.98;10.98;;;14.70;99.90;;;;;;5074025;28;20090;-74
2022/09/20 08:52:56;;;;;;;18.38;11.77;;;14.80;99.90;;;;;;5077005;28;20040;-74
2022/09/20 08:55:30;;;;;;;16.98;9.93;;;14.70;99.90;;;;;;5059276;28;20128;-73
2022/09/20 08:57:59;;;;;;;14.95;9.98;;;14.90;99.90;;;;;;5076792;28;20127;-75
2022/09/20 09:00:31;;;;;;;16.58;8.77;;;15.10;99.90;;;;;;5077393;28;20466;-74
2022/09/20 09:03:00;;;;;;;15.43;9.25;;;15.40;99.90;;;;;;5058885;28;20048;-74
2022/09/20 09:05:32;;;;;;;17.55;10.30;;;15.80;99.90;;;;;;5059071;28;20071;-75
2022/09/20 09:08:00;;;;;;;17.88;9.63;;;16.20;99.90;;;;;;5058957;28;20135;-75
2022/09/20 09:10:35;;;;;;;13.32;9.60;;;16.30;99.90;;;;;;5058762;28;20478;-76
2022/09/20 09:13:03;;;;;;;20.80;10.57;;;16.30;99.90;;;;;;5076490;28;20510;-76
2022/09/20 09:15:34;;;;;;;13.90;9.95;;;16.20;99.90;;;;;;5076675;28;20072;-75
2022/09/20 09:18:02;;;;;;;18.08;11.57;;;16.20;99.90;;;;;;5076472;28;20105;-75
2022/09/20 09:20:40;;;;;;;20.45;12.10;;;16.30;99.90;;;;;;5076752;28;20484;-75
2022/09/20 09:23:09;;;;;;;17.77;11.85;;;16.10;99.90;;;;;;5076255;28;20037;-74
2022/09/20 09:25:38;;;;;;;20.48;12.02;;;16.20;99.90;;;;;;5076364;28;20064;-74
2022/09/20 09:28:14;;;;;;;20.58;11.98;;;16.30;99.90;;;;;;5076613;28;20048;-75
2022/09/20 09:30:45;;;;;;;;;;;16.40;99.90;;;;;;5059277;28;20049;-75
2022/09/20 09:33:21;;;;;;;18.00;10.20;;;16.30;99.90;;;;;;5076729;28;19959;-75
2022/09/20 09:35:54;;;;;;;18.70;12.70;;;16.20;99.90;;;;;;5077226;28;20048;-74
2022/09/20 09:38:24;;;;;;;23.05;13.73;;;16.30;99.90;;;;;;5076663;28;20051;-76
2022/09/20 09:40:54;;;;;;;15.30;11.02;;;16.50;99.90;;;;;;5076409;28;20052;-76
2022/09/20 09:43:25;;;;;;;14.48;8.60;;;16.60;99.90;;;;;;5076114;28;20039;-75
2022/09/20 09:45:55;;;;;;;15.75;10.95;;;16.80;99.90;;;;;;5076718;28;20094;-74
2022/09/20 09:48:28;;;;;;;14.45;9.52;;;17.00;99.90;;;;;;5076133;28;20045;-76
2022/09/20 09:51:10;;;;;;;14.57;8.88;;;17.30;99.90;;;;;;5076253;28;20044;-74
2022/09/20 09:53:38;;;;;;;16.90;11.48;;;17.50;99.90;;;;;;5057884;28;20041;-73
2022/09/20 09:56:23;;;;;;;16.23;11.25;;;17.60;99.90;;;;;;5075918;28;20040;-75
2022/09/20 09:59:09;;;;;;;13.40;9.05;;;17.50;99.90;;;;;;5118309;22;20054;-75
2022/09/20 10:01:50;;;;;;;10.35;6.95;;;17.40;99.90;;;;;;5101347;28;20066;-76
2022/09/20 10:04:26;;;;;;;12.75;8.13;;;17.40;99.90;;;;;;5097699;28;20558;-76
2022/09/20 10:07:02;;;;;;;13.80;6.95;;;17.30;99.90;;;;;;5100260;28;20070;-75
2022/09/20 10:09:45;;;;;;;9.77;6.78;;;17.10;99.90;;;;;;5085434;28;20055;-76
2022/09/20 10:12:25;;;;;;;11.00;6.82;;;17.10;99.90;;;;;;5081075;28;20059;-76
2022/09/20 10:15:05;;;;;;;8.98;5.72;;;17.20;99.90;;;;;;5077501;28;20102;-76
2022/09/20 10:17:46;;;;;;;9.85;6.07;;;17.10;99.90;;;;;;5078889;28;20560;-76
2022/09/20 10:20:32;;;;;;;9.18;5.57;;;16.90;99.90;;;;;;5077877;28;20044;-76
2022/09/20 10:23:12;;;;;;;10.73;7.05;;;17.00;99.90;;;;;;5090384;28;20040;-76
2022/09/20 10:25:49;;;;;;;10.93;6.70;;;17.00;99.90;;;;;;5080382;28;20063;-75
2022/09/20 10:28:35;;;;;;;7.35;4.53;;;17.10;99.90;;;;;;5099184;28;20063;-75
2022/09/20 10:31:12;;;;;;;8.77;5.20;;;17.10;99.90;;;;;;5098695;28;20044;-74
2022/09/20 10:33:50;;;;;;;9.63;5.50;;;17.30;99.90;;;;;;5091524;28;20032;-77
2022/09/20 10:36:25;;;;;;;8.50;5.38;;;17.10;99.90;;;;;;5086561;28;20055;-74
2022/09/20 10:38:59;;;;;;;5.70;3.45;;;17.30;99.90;;;;;;5097491;28;20064;-74
2022/09/20 10:44:45;;;;;;;10.57;5.43;;;17.90;99.90;;;;;;5063054;28;20041;-75
2022/09/20 10:47:18;;;;;;;6.60;4.07;;;18.20;99.90;;;;;;5094144;28;20126;-75
2022/09/20 10:49:59;;;;;;;6.88;4.10;;;18.40;99.90;;;;;;5110787;28;20048;-78
2022/09/20 10:52:48;;;;;;;7.18;3.95;;;18.90;99.90;;;;;;5105102;28;20182;-76
2022/09/20 10:55:34;;;;;;;5.07;3.08;;;19.30;99.90;;;;;;5093661;28;20040;-77
2022/09/20 10:58:39;;;;;;;5.97;3.60;;;19.30;99.30;;;;;;5085277;28;20065;-75
2022/09/20 11:01:12;;;;;;;5.90;3.38;;;19.50;98.80;;;;;;5098020;28;20517;-78
2022/09/20 11:03:55;;;;;;;10.27;6.65;;;18.90;99.20;;;;;;5079686;28;20060;-77
2022/09/20 11:06:40;;;;;;;6.35;3.92;;;18.70;99.90;;;;;;5070975;28;20049;-77
2022/09/20 11:09:11;;;;;;;8.18;4.20;;;18.60;99.30;;;;;;5113472;28;20040;-75
2022/09/20 11:11:42;;;;;;;7.88;4.50;;;18.60;99.20;;;;;;5091352;28;20072;-75
2022/09/20 11:14:15;;;;;;;8.07;4.28;;;18.70;98.80;;;;;;5097148;28;20048;-76
2022/09/20 11:16:51;;;;;;;8.15;5.70;;;18.80;98.00;;;;;;5097922;28;20066;-74
2022/09/20 11:19:23;;;;;;;;;;;18.80;97.80;;;;;;5089340;28;20376;-74
2022/09/20 11:21:58;;;;;;;5.63;3.85;;;18.80;97.30;;;;;;5078137;28;19920;-76
2022/09/20 11:24:31;;;;;;;11.27;6.22;;;18.80;96.50;;;;;;5079278;28;20048;-76
2022/09/20 11:27:05;;;;;;;11.23;7.13;;;18.60;96.70;;;;;;5109798;28;20040;-76
2022/09/20 11:29:37;;;;;;;12.73;4.55;;;18.30;97.40;;;;;;5097989;28;20119;-75
2022/09/20 11:32:12;;;;;;;8.15;4.10;;;18.30;97.30;;;;;;5078435;28;20051;-75
2022/09/20 11:34:49;;;;;;;12.60;4.75;;;18.40;98.00;;;;;;5096662;28;20131;-75
2022/09/20 11:37:21;;;;;;;15.38;8.05;;;18.40;97.70;;;;;;5091162;28;20044;-75
2022/09/20 11:39:54;;;;;;;10.20;6.15;;;18.60;97.70;;;;;;5079754;28;20456;-75
2022/09/20 11:42:24;;;;;;;7.18;3.80;;;18.40;98.00;;;;;;5099024;28;20052;-74
2022/09/20 11:44:51;;;;;;;7.82;5.05;;;18.40;97.60;;;;;;5098104;28;20063;-75
2022/09/20 11:47:26;;;;;;;14.40;7.45;;;18.50;97.90;;;;;;5098717;28;20051;-76
2022/09/20 11:50:25;;;;;;;14.38;7.88;;;18.70;97.20;;;;;;5079481;28;20044;-73
2022/09/20 11:53:06;;;;;;;5.40;3.30;;;18.80;96.20;;;;;;5078925;28;20044;-76
2022/09/20 11:55:42;;;;;;;6.72;3.47;;;19.10;95.30;;;;;;5078709;28;20051;-76
2022/09/20 11:58:14;;;;;;;8.80;3.05;;;19.20;94.50;;;;;;5098496;28;20134;-75
2022/09/20 12:00:45;;;;;;;5.05;2.88;;;19.10;93.80;;;;;;5079789;28;20052;-76
2022/09/20 12:03:25;;;;;;;9.15;3.88;;;19.10;93.70;;;;;;5078554;28;20040;-76
2022/09/20 12:05:59;;;;;;;5.78;3.10;;;18.90;94.00;;;;;;5097408;28;20482;-76
2022/09/20 12:08:32;;;;;;;8.60;3.35;;;18.60;92.70;;;;;;5099125;28;20039;-75
2022/09/20 12:11:04;;;;;;;6.85;3.05;;;18.60;93.00;;;;;;5069797;28;20040;-76
2022/09/20 12:13:35;;;;;;;10.30;3.83;;;18.70;92.80;;;;;;5078240;28;20095;-75
2022/09/20 12:16:05;;;;;;;7.10;3.47;;;18.70;93.10;;;;;;5083852;28;20055;-76
2022/09/20 12:19:00;;;;;;;24.30;5.53;;;18.70;93.30;;;;;;5060346;28;20139;-75
2022/09/20 12:21:28;;;;;;;17.70;5.50;;;18.90;93.00;;;;;;5059599;28;20048;-75
2022/09/20 12:24:22;;;;;;;5.13;2.67;;;18.80;93.00;;;;;;5076984;28;20424;-75
2022/09/20 12:26:58;;;;;;;4.20;2.67;;;18.70;92.50;;;;;;5076460;28;20076;-75
2022/09/20 12:30:10;;;;;;;4.25;2.67;;;18.70;92.40;;;;;;5076304;28;20068;-75
2022/09/20 12:32:50;;;;;;;5.63;2.35;;;18.60;93.20;;;;;;5059657;28;20064;-75
2022/09/20 12:36:00;;;;;;;6.30;3.00;;;18.40;93.00;;;;;;5078089;28;20051;-76
2022/09/20 12:39:04;;;;;;;6.05;2.72;;;18.10;94.40;;;;;;5060488;28;20078;-77
2022/09/20 12:41:53;;;;;;;6.20;3.35;;;17.80;93.80;;;;;;5079922;28;20044;-76
2022/09/20 12:44:30;;;;;;;5.18;2.60;;;17.60;94.90;;;;;;5076985;28;20040;-76
2022/09/20 12:47:00;;;;;;;8.13;4.95;;;17.50;95.00;;;;;;5081216;28;20048;-76
2022/09/20 12:52:52;;;;;;;6.25;2.47;;;17.40;95.50;;;;;;5073452;28;20038;-75
2022/09/20 12:55:38;;;;;;;5.75;3.13;;;17.50;95.40;;;;;;5092253;28;20036;-75
2022/09/20 12:58:32;;;;;;;5.45;2.65;;;17.80;95.10;;;;;;5073728;28;20091;-76
2022/09/20 13:01:31;;;;;;;11.20;7.55;;;18.10;94.60;;;;;;5087112;28;20056;-75
2022/09/20 13:04:54;;;;;;;9.98;6.57;;;18.30;94.30;;;;;;5073759;28;20040;-75
2022/09/20 13:07:52;;;;;;;5.45;3.50;;;18.50;94.40;;;;;;5092173;28;20048;-76
2022/09/20 13:10:32;;;;;;;7.25;3.60;;;18.70;94.40;;;;;;5101940;28;20123;-75
2022/09/20 13:13:12;;;;;;;5.53;3.10;;;18.80;94.20;;;;;;5095389;28;20060;-76
2022/09/20 13:15:40;;;;;;;7.03;3.70;;;18.80;93.70;;;;;;5088149;28;20048;-75
2022/09/20 13:18:14;;;;;;;7.70;3.28;;;18.50;94.90;;;;;;5080502;28;20048;-75
2022/09/20 13:20:43;;;;;;;6.07;3.05;;;18.40;95.00;;;;;;5097001;28;20048;-76
2022/09/20 13:23:19;;;;;;;4.75;3.20;;;18.30;95.00;;;;;;5096415;28;20044;-74
2022/09/20 13:25:48;;;;;;;7.55;4.40;;;18.10;96.00;;;;;;5097042;28;20040;-74
2022/09/20 13:28:28;;;;;;;6.97;4.15;;;18.10;96.90;;;;;;5097017;28;20512;-75
2022/09/20 13:31:24;;;;;;;7.90;3.95;;;18.10;96.90;;;;;;5078333;28;20062;-75
2022/09/20 13:33:51;;;;;;;7.78;3.75;;;18.20;98.00;;;;;;5061118;28;20094;-74
2022/09/20 13:36:26;;;;;;;18.45;12.02;;;18.10;98.50;;;;;;5078313;28;20048;-77
2022/09/20 13:38:56;;;;;;;6.88;3.28;;;18.00;98.30;;;;;;5101247;28;20076;-76
2022/09/20 13:41:24;;;;;;;4.90;3.10;;;17.70;97.80;;;;;;5082087;28;20044;-75
2022/09/20 13:43:53;;;;;;;8.75;4.93;;;17.50;99.30;;;;;;5081657;28;20040;-75